createdAt,value
2022-12-23T00:01:26.873Z,49.60
2022-12-23T00:04:00.137Z,46.58
2022-12-23T00:06:28.503Z,51.45
2022-12-23T00:08:59.359Z,46.17
2022-12-23T00:11:29.095Z,44.70
2022-12-23T00:14:20.471Z,47.88
2022-12-23T00:16:49.989Z,43.15
2022-12-23T00:19:19.575Z,52.03
2022-12-23T00:21:48.321Z,50.45
2022-12-23T00:24:16.824Z,50.60
2022-12-23T00:26:45.274Z,47.47
2022-12-23T00:29:13.450Z,49.10
2022-12-23T00:31:41.737Z,52.00
2022-12-23T00:34:11.826Z,57.00
2022-12-23T00:36:41.637Z,48.53
2022-12-23T00:39:45.224Z,52.25
2022-12-23T00:45:15.674Z,50.80
2022-12-23T00:48:01.768Z,55.92
2022-12-23T00:50:30.906Z,53.80
2022-12-23T00:53:00.905Z,52.63
2022-12-23T00:55:29.110Z,56.65
2022-12-23T00:57:57.227Z,61.08
2022-12-23T01:00:45.522Z,56.75
2022-12-23T01:03:43.853Z,58.85
2022-12-23T01:06:14.397Z,58.30
2022-12-23T01:08:44.293Z,55.88
2022-12-23T01:11:13.339Z,56.88
2022-12-23T01:13:41.517Z,60.33
2022-12-23T01:16:17.090Z,61.72
2022-12-23T01:18:46.337Z,60.28
2022-12-23T01:21:14.880Z,56.80
2022-12-23T01:23:44.641Z,62.53
2022-12-23T01:26:13.384Z,64.97
2022-12-23T01:28:41.670Z,58.15
2022-12-23T01:31:11.387Z,57.80
2022-12-23T01:33:39.654Z,61.35
2022-12-23T01:36:09.289Z,54.08
2022-12-23T01:38:37.453Z,54.92
2022-12-23T01:41:09.317Z,56.85
2022-12-23T01:43:45.883Z,58.30
2022-12-23T01:46:14.336Z,58.88
2022-12-23T01:48:45.001Z,55.95
2022-12-23T01:51:17.014Z,57.28
2022-12-23T01:53:48.360Z,58.63
2022-12-23T01:56:20.929Z,56.53
2022-12-23T01:58:53.277Z,58.47
2022-12-23T02:01:39.441Z,59.20
2022-12-23T02:04:10.339Z,55.13
2022-12-23T02:07:13.481Z,59.67
2022-12-23T02:09:42.279Z,63.35
2022-12-23T02:12:41.861Z,68.03
2022-12-23T02:15:44.505Z,66.07
2022-12-23T02:18:26.851Z,67.83
2022-12-23T02:21:23.002Z,63.90
2022-12-23T02:24:25.334Z,65.82
2022-12-23T02:27:08.491Z,67.80
2022-12-23T02:30:15.433Z,66.85
2022-12-23T02:33:02.605Z,70.30
2022-12-23T02:35:36.909Z,67.95
2022-12-23T02:38:11.131Z,67.43
2022-12-23T02:40:45.261Z,64.20
2022-12-23T02:43:18.565Z,69.70
2022-12-23T02:45:50.537Z,64.60
2022-12-23T02:48:28.720Z,71.07
2022-12-23T02:50:58.799Z,68.22
2022-12-23T02:53:31.608Z,66.75
2022-12-23T02:58:32.937Z,68.72
2022-12-23T03:01:03.302Z,67.97
2022-12-23T03:03:33.784Z,78.03
2022-12-23T03:06:03.381Z,86.68
2022-12-23T03:08:36.435Z,74.35
2022-12-23T03:11:08.772Z,73.95
2022-12-23T03:13:54.991Z,75.20
2022-12-23T03:16:28.280Z,71.20
2022-12-23T03:19:08.783Z,75.18
2022-12-23T03:21:42.322Z,74.25
2022-12-23T03:24:19.651Z,71.78
2022-12-23T03:26:53.072Z,70.68
2022-12-23T03:29:26.197Z,70.80
2022-12-23T03:31:56.230Z,71.50
2022-12-23T03:34:30.589Z,67.63
2022-12-23T03:37:01.729Z,70.78
2022-12-23T03:39:34.128Z,76.47
2022-12-23T03:42:09.877Z,78.55
2022-12-23T03:44:57.237Z,75.45
2022-12-23T03:47:34.249Z,77.75
2022-12-23T03:50:07.125Z,72.70
2022-12-23T03:52:40.151Z,73.00
2022-12-23T03:55:12.705Z,69.93
2022-12-23T03:57:45.813Z,78.43
2022-12-23T04:00:14.414Z,76.75
2022-12-23T04:02:51.470Z,76.38
2022-12-23T04:05:26.276Z,74.18
2022-12-23T04:07:59.681Z,80.28
2022-12-23T04:10:28.631Z,78.57
2022-12-23T04:12:56.731Z,75.95
2022-12-23T04:15:26.656Z,72.88
2022-12-23T04:17:57.614Z,77.15
2022-12-23T04:20:27.412Z,78.03
2022-12-23T04:22:55.496Z,75.53
2022-12-23T04:25:23.626Z,78.53
2022-12-23T04:27:51.737Z,77.72
2022-12-23T04:30:20.106Z,80.22
2022-12-23T04:32:48.195Z,77.32
2022-12-23T04:35:16.459Z,78.60
2022-12-23T04:37:48.339Z,87.20
2022-12-23T04:40:16.622Z,83.10
2022-12-23T04:42:44.792Z,86.40
2022-12-23T04:45:15.307Z,85.53
2022-12-23T04:47:43.478Z,83.00
2022-12-23T04:50:15.349Z,84.97
2022-12-23T04:52:43.634Z,84.83
2022-12-23T04:55:13.296Z,83.25
2022-12-23T04:57:41.424Z,83.03
2022-12-23T05:00:11.009Z,85.43
2022-12-23T05:02:39.337Z,82.05
2022-12-23T05:05:08.008Z,88.80
2022-12-23T05:07:36.105Z,85.10
2022-12-23T05:10:04.320Z,88.00
2022-12-23T05:12:33.843Z,84.38
2022-12-23T05:15:01.910Z,89.78
2022-12-23T05:17:30.051Z,86.55
2022-12-23T05:19:58.146Z,88.85
2022-12-23T05:22:26.417Z,87.90
2022-12-23T05:24:54.491Z,85.75
2022-12-23T05:27:22.624Z,81.22
2022-12-23T05:29:52.049Z,72.78
2022-12-23T05:32:20.185Z,74.03
2022-12-23T05:34:48.284Z,79.30
2022-12-23T05:37:16.306Z,84.60
2022-12-23T05:39:44.427Z,79.20
2022-12-23T05:42:12.524Z,77.60
2022-12-23T05:44:40.709Z,75.75
2022-12-23T05:47:10.138Z,85.00
2022-12-23T05:49:38.335Z,83.65
2022-12-23T05:52:06.701Z,76.32
2022-12-23T05:54:34.763Z,77.45
2022-12-23T05:57:03.061Z,81.53
2022-12-23T05:59:31.897Z,82.07
2022-12-23T06:02:00.398Z,84.57
2022-12-23T06:04:30.075Z,79.03
2022-12-23T06:06:58.176Z,80.57
2022-12-23T06:09:28.481Z,71.45
2022-12-23T06:11:56.554Z,74.50
2022-12-23T06:14:28.747Z,77.95
2022-12-23T06:19:25.849Z,84.10
2022-12-23T06:21:55.319Z,81.47
2022-12-23T06:24:23.486Z,74.32
2022-12-23T06:26:56.700Z,77.68
2022-12-23T06:29:25.664Z,77.57
2022-12-23T06:31:53.933Z,78.22
2022-12-23T06:34:25.244Z,77.13
2022-12-23T06:36:53.332Z,81.07
2022-12-23T06:39:23.038Z,80.38
2022-12-23T06:41:51.418Z,76.90
2022-12-23T06:44:19.805Z,78.53
2022-12-23T06:46:49.900Z,74.93
2022-12-23T06:49:17.977Z,77.60
2022-12-23T06:51:46.105Z,82.80
2022-12-23T06:54:14.384Z,75.80
2022-12-23T06:56:43.814Z,76.60
2022-12-23T06:59:11.878Z,76.13
2022-12-23T07:01:40.618Z,82.97
2022-12-23T07:04:08.840Z,79.88
2022-12-23T07:06:39.528Z,88.68
2022-12-23T07:09:16.270Z,82.25
2022-12-23T07:11:47.418Z,85.85
2022-12-23T07:14:15.477Z,84.03
2022-12-23T07:16:43.568Z,81.57
2022-12-23T07:19:11.808Z,81.50
2022-12-23T07:21:39.874Z,78.35
2022-12-23T07:24:09.022Z,85.70
2022-12-23T07:26:37.239Z,83.38
2022-12-23T07:29:07.662Z,77.90
2022-12-23T07:31:40.603Z,73.88
2022-12-23T07:34:09.851Z,76.13
2022-12-23T07:36:38.195Z,77.45
2022-12-23T07:39:06.563Z,73.55
2022-12-23T07:41:34.867Z,75.40
2022-12-23T07:44:08.933Z,76.47
2022-12-23T07:46:37.528Z,71.47
2022-12-23T07:49:06.116Z,64.65
2022-12-23T07:51:34.509Z,66.13
2022-12-23T07:54:05.248Z,63.17
2022-12-23T07:56:33.325Z,68.63
2022-12-23T07:59:01.758Z,64.47
2022-12-23T08:01:31.578Z,64.80
2022-12-23T08:03:59.797Z,71.75
2022-12-23T08:06:28.336Z,73.70
2022-12-23T08:08:56.421Z,71.90
2022-12-23T08:11:24.733Z,70.80
2022-12-23T08:13:55.504Z,68.28
2022-12-23T08:16:23.678Z,81.40
2022-12-23T08:18:53.315Z,73.30
2022-12-23T08:21:23.873Z,69.97
2022-12-23T08:23:53.025Z,75.75
2022-12-23T08:26:23.126Z,77.10
2022-12-23T08:28:53.661Z,69.53
2022-12-23T08:31:24.937Z,72.18
2022-12-23T08:33:56.592Z,76.70
2022-12-23T08:36:26.393Z,70.65
2022-12-23T08:38:56.838Z,74.22
2022-12-23T08:41:27.526Z,65.22
2022-12-23T08:43:56.206Z,73.22
2022-12-23T08:46:26.063Z,70.25
2022-12-23T08:48:55.917Z,70.68
2022-12-23T08:51:25.713Z,63.70
2022-12-23T08:54:00.185Z,69.35
2022-12-23T08:56:32.075Z,65.85
2022-12-23T08:59:00.409Z,59.95
2022-12-23T09:01:30.414Z,64.65
2022-12-23T09:04:02.612Z,64.60
2022-12-23T09:06:33.991Z,68.50
2022-12-23T09:09:02.233Z,59.00
2022-12-23T09:11:30.747Z,62.78
2022-12-23T09:14:01.308Z,69.53
2022-12-23T09:16:30.533Z,71.60
2022-12-23T09:19:00.216Z,74.70
2022-12-23T09:21:30.909Z,75.10
2022-12-23T09:23:59.205Z,72.72
2022-12-23T09:26:29.230Z,74.55
2022-12-23T09:28:58.186Z,67.43
2022-12-23T09:31:32.639Z,70.93
2022-12-23T09:34:06.909Z,67.20
2022-12-23T09:36:35.432Z,69.82
2022-12-23T09:39:03.605Z,73.35
2022-12-23T09:42:04.502Z,72.00
2022-12-23T09:44:59.630Z,74.90
2022-12-23T09:47:31.099Z,73.22
2022-12-23T09:50:04.164Z,70.93
2022-12-23T09:52:41.517Z,79.18
2022-12-23T09:55:12.304Z,67.57
2022-12-23T09:57:49.370Z,67.55
2022-12-23T10:00:20.077Z,76.05
2022-12-23T10:03:06.050Z,80.63
2022-12-23T10:05:47.361Z,82.22
2022-12-23T10:08:20.705Z,71.43
2022-12-23T10:10:52.490Z,67.22
2022-12-23T10:13:27.503Z,76.95
2022-12-23T10:15:59.539Z,66.25
2022-12-23T10:18:39.236Z,66.80
2022-12-23T10:21:14.492Z,56.53
2022-12-23T10:23:47.478Z,56.85
2022-12-23T10:26:23.089Z,63.50
2022-12-23T10:28:54.905Z,58.65
2022-12-23T10:31:40.777Z,59.10
2022-12-23T10:34:16.263Z,57.90
2022-12-23T10:36:53.939Z,58.85
2022-12-23T10:39:33.614Z,55.55
2022-12-23T10:42:13.589Z,56.42
2022-12-23T10:45:14.262Z,54.05
2022-12-23T10:47:52.904Z,51.63
2022-12-23T10:50:46.063Z,55.35
2022-12-23T10:53:23.032Z,57.28
2022-12-23T10:55:51.999Z,54.90
2022-12-23T10:58:20.855Z,68.93
2022-12-23T11:00:54.468Z,49.88
2022-12-23T11:03:28.593Z,49.95
2022-12-23T11:05:58.798Z,46.00
2022-12-23T11:08:32.088Z,48.40
2022-12-23T11:11:02.216Z,44.20
2022-12-23T11:13:36.803Z,44.70
2022-12-23T11:16:22.167Z,47.40
2022-12-23T11:18:56.060Z,35.92
2022-12-23T11:21:27.609Z,32.75
2022-12-23T11:24:17.711Z,27.45
2022-12-23T11:26:47.212Z,24.85
2022-12-23T11:29:23.739Z,25.67
2022-12-23T11:31:52.641Z,26.77
2022-12-23T11:34:23.905Z,23.20
2022-12-23T11:37:03.298Z,27.60
2022-12-23T11:39:38.592Z,24.75
2022-12-23T11:42:13.043Z,26.92
2022-12-23T11:44:44.540Z,25.00
2022-12-23T11:47:30.764Z,24.92
2022-12-23T11:50:00.549Z,31.20
2022-12-23T11:52:30.381Z,26.35
2022-12-23T11:55:01.576Z,32.97
2022-12-23T11:57:38.424Z,31.33
2022-12-23T12:00:08.783Z,34.58
2022-12-23T12:02:39.629Z,33.22
2022-12-23T12:05:20.786Z,40.70
2022-12-23T12:07:50.351Z,40.58
2022-12-23T12:10:22.790Z,41.17
2022-12-23T12:12:58.571Z,41.67
2022-12-23T12:15:37.818Z,44.90
2022-12-23T12:18:10.808Z,49.28
2022-12-23T12:20:42.950Z,42.95
2022-12-23T12:23:15.729Z,42.42
2022-12-23T12:28:20.331Z,42.95
2022-12-23T12:30:52.009Z,49.67
2022-12-23T12:33:24.964Z,47.85
2022-12-23T12:36:04.967Z,47.85
2022-12-23T12:38:34.537Z,48.53
2022-12-23T12:41:09.857Z,51.88
2022-12-23T12:43:41.843Z,47.33
2022-12-23T12:46:25.809Z,44.60
2022-12-23T12:49:00.302Z,45.28
2022-12-23T12:51:33.069Z,39.90
2022-12-23T12:56:42.471Z,32.33
2022-12-23T12:59:17.944Z,34.63
2022-12-23T13:02:00.508Z,34.88
2022-12-23T13:04:50.274Z,37.80
2022-12-23T13:07:25.958Z,34.47
2022-12-23T13:10:02.370Z,31.15
2022-12-23T13:12:45.330Z,34.90
2022-12-23T13:18:00.389Z,24.23
2022-12-23T13:20:37.501Z,26.40
2022-12-23T13:23:41.690Z,25.85
2022-12-23T13:26:10.661Z,25.77
2022-12-23T13:28:50.944Z,29.58
2022-12-23T13:31:33.546Z,30.85
2022-12-23T13:34:11.572Z,32.13
2022-12-23T13:36:49.060Z,40.60
2022-12-23T13:39:33.106Z,34.00
2022-12-23T13:42:06.108Z,30.13
2022-12-23T13:44:36.340Z,23.45
2022-12-23T13:47:15.379Z,24.13
2022-12-23T13:50:00.317Z,25.73
2022-12-23T13:52:39.484Z,26.50
2022-12-23T13:55:16.840Z,37.22
2022-12-23T13:57:56.612Z,33.03
2022-12-23T14:00:31.852Z,32.72
2022-12-23T14:03:25.068Z,32.88
2022-12-23T14:05:54.395Z,33.60
2022-12-23T14:08:30.723Z,31.98
2022-12-23T14:11:01.619Z,28.88
2022-12-23T14:13:35.150Z,26.88
2022-12-23T14:16:31.825Z,28.30
2022-12-23T14:19:20.596Z,26.15
2022-12-23T14:21:59.211Z,27.92
2022-12-23T14:25:00.721Z,28.77
2022-12-23T14:27:47.728Z,28.80
2022-12-23T14:30:19.356Z,32.80
2022-12-23T14:32:51.610Z,35.75
2022-12-23T14:35:27.140Z,36.30
2022-12-23T14:38:23.343Z,36.35
2022-12-23T14:41:01.134Z,31.35
2022-12-23T14:43:51.319Z,39.42
2022-12-23T14:46:58.742Z,36.53
2022-12-23T14:49:46.405Z,40.88
2022-12-23T14:52:54.232Z,37.00
2022-12-23T14:55:44.322Z,27.73
2022-12-23T14:58:49.841Z,31.02
2022-12-23T15:01:20.948Z,25.65
2022-12-23T15:03:59.219Z,29.33
2022-12-23T15:06:36.397Z,24.05
2022-12-23T15:09:06.078Z,23.08
2022-12-23T15:11:36.039Z,28.10
2022-12-23T15:14:08.906Z,28.42
2022-12-23T15:19:19.446Z,34.10
2022-12-23T15:21:58.206Z,41.05
2022-12-23T15:24:31.495Z,38.25
2022-12-23T15:29:51.179Z,39.85
2022-12-23T15:32:20.673Z,35.42
2022-12-23T15:34:50.407Z,38.75
2022-12-23T15:37:26.704Z,36.88
2022-12-23T15:40:04.529Z,40.13
2022-12-23T15:42:47.216Z,36.40
2022-12-23T15:45:35.581Z,43.53
2022-12-23T15:48:05.224Z,39.80
2022-12-23T15:50:40.420Z,38.03
2022-12-23T15:53:18.431Z,35.17
2022-12-23T15:55:49.950Z,41.72
2022-12-23T15:58:23.474Z,41.47
2022-12-23T16:00:54.664Z,42.45
2022-12-23T16:03:28.216Z,44.53
2022-12-23T16:06:06.613Z,45.42
2022-12-23T16:08:36.448Z,39.53
2022-12-23T16:11:13.262Z,45.28
2022-12-23T16:13:47.351Z,44.58
2022-12-23T16:16:39.268Z,45.58
2022-12-23T16:19:08.107Z,45.28
2022-12-23T16:21:37.732Z,43.05
2022-12-23T16:24:10.466Z,40.35
2022-12-23T16:26:43.397Z,43.70
2022-12-23T16:29:12.489Z,39.63
2022-12-23T16:31:48.261Z,43.22
2022-12-23T16:34:20.450Z,39.80
2022-12-23T16:36:48.705Z,58.85
2022-12-23T16:39:22.718Z,47.58
2022-12-23T16:41:50.982Z,43.45
2022-12-23T16:44:19.138Z,41.15
2022-12-23T16:46:50.590Z,44.63
2022-12-23T16:49:20.363Z,45.35
2022-12-23T16:51:49.039Z,39.70
2022-12-23T16:54:20.319Z,36.83
2022-12-23T16:56:48.555Z,35.85
2022-12-23T16:59:16.786Z,34.47
2022-12-23T17:01:47.417Z,36.05
2022-12-23T17:04:16.333Z,37.65
2022-12-23T17:06:46.503Z,32.92
2022-12-23T17:09:14.954Z,36.00
2022-12-23T17:11:47.327Z,35.45
2022-12-23T17:14:18.136Z,33.15
2022-12-23T17:16:47.621Z,35.22
2022-12-23T17:19:18.223Z,32.53
2022-12-23T17:21:54.105Z,36.78
2022-12-23T17:24:24.578Z,31.55
2022-12-23T17:26:55.294Z,34.55
2022-12-23T17:29:23.594Z,35.25
2022-12-23T17:31:59.119Z,36.53
2022-12-23T17:34:27.789Z,37.72
2022-12-23T17:36:56.040Z,37.60
2022-12-23T17:39:24.173Z,35.75
2022-12-23T17:41:53.760Z,36.00
2022-12-23T17:44:21.923Z,37.55
2022-12-23T17:46:50.124Z,35.72
2022-12-23T17:49:18.281Z,37.78
2022-12-23T17:51:46.453Z,37.65
2022-12-23T17:54:23.154Z,40.63
2022-12-23T17:56:51.902Z,40.45
2022-12-23T17:59:22.595Z,39.05
2022-12-23T18:01:50.988Z,45.35
2022-12-23T18:04:19.253Z,46.05
2022-12-23T18:06:47.423Z,45.78
2022-12-23T18:09:16.658Z,42.70
2022-12-23T18:11:47.244Z,43.55
2022-12-23T18:14:18.189Z,42.10
2022-12-23T18:16:47.844Z,45.70
2022-12-23T18:19:18.809Z,42.47
2022-12-23T18:21:49.940Z,69.28
2022-12-23T18:24:18.950Z,67.97
2022-12-23T18:26:47.572Z,41.50
2022-12-23T18:29:15.884Z,47.92
2022-12-23T18:31:52.079Z,47.10
2022-12-23T18:34:21.902Z,51.20
2022-12-23T18:36:51.543Z,47.83
2022-12-23T18:39:20.324Z,81.32
2022-12-23T18:41:48.508Z,58.47
2022-12-23T18:44:19.916Z,66.50
2022-12-23T18:46:48.486Z,50.63
2022-12-23T18:49:18.138Z,55.28
2022-12-23T18:51:46.802Z,44.20
2022-12-23T18:54:15.726Z,51.67
2022-12-23T18:56:44.434Z,51.22
2022-12-23T18:59:16.917Z,54.75
2022-12-23T19:01:45.228Z,52.42
2022-12-23T19:04:13.578Z,61.10
2022-12-23T19:06:43.190Z,56.92
2022-12-23T19:09:18.043Z,52.92
2022-12-23T19:11:49.071Z,51.20
2022-12-23T19:14:17.363Z,49.35
2022-12-23T19:16:51.168Z,53.55
2022-12-23T19:19:20.577Z,48.70
2022-12-23T19:21:50.180Z,48.28
2022-12-23T19:24:18.465Z,52.85
2022-12-23T19:26:46.629Z,58.05
2022-12-23T19:29:14.801Z,53.45
2022-12-23T19:31:43.009Z,85.60
2022-12-23T19:34:15.474Z,120.10
2022-12-23T19:39:16.558Z,57.88
2022-12-23T19:41:45.070Z,62.63
2022-12-23T19:44:13.255Z,55.72
2022-12-23T19:46:41.890Z,80.05
2022-12-23T19:49:15.747Z,198.25
2022-12-23T19:51:47.717Z,104.00
2022-12-23T19:54:17.529Z,78.22
2022-12-23T19:56:46.258Z,190.20
2022-12-23T19:59:14.600Z,195.93
2022-12-23T20:01:42.817Z,166.10
2022-12-23T20:04:11.455Z,84.55
2022-12-23T20:06:41.240Z,84.63
2022-12-23T20:09:13.774Z,90.30
2022-12-23T20:11:45.093Z,84.03
2022-12-23T20:14:19.115Z,93.50
2022-12-23T20:16:50.057Z,94.97
2022-12-23T20:19:18.704Z,108.10
2022-12-23T20:21:46.892Z,86.25
2022-12-23T20:24:16.309Z,88.55
2022-12-23T20:26:45.940Z,124.75
2022-12-23T20:29:14.261Z,99.82
2022-12-23T20:31:42.417Z,82.53
2022-12-23T20:34:16.638Z,89.13
2022-12-23T20:36:44.959Z,113.85
2022-12-23T20:39:13.548Z,98.22
2022-12-23T20:41:41.795Z,94.10
2022-12-23T20:47:00.148Z,103.28
2022-12-23T20:49:28.427Z,103.95
2022-12-23T20:51:58.418Z,108.60
2022-12-23T20:54:32.787Z,106.28
2022-12-23T20:57:02.163Z,137.30
2022-12-23T20:59:31.696Z,119.18
2022-12-23T21:02:00.021Z,119.50
2022-12-23T21:04:28.428Z,121.85
2022-12-23T21:06:56.589Z,115.72
2022-12-23T21:09:24.957Z,116.07
2022-12-23T21:11:53.141Z,105.82
2022-12-23T21:14:21.286Z,116.07
2022-12-23T21:16:50.978Z,117.18
2022-12-23T21:19:20.699Z,113.47
2022-12-23T21:21:49.665Z,105.53
2022-12-23T21:24:18.377Z,99.63
2022-12-23T21:26:55.498Z,102.45
2022-12-23T21:29:24.949Z,120.15
2022-12-23T21:31:55.108Z,106.20
2022-12-23T21:34:23.716Z,104.55
2022-12-23T21:36:51.952Z,104.55
2022-12-23T21:39:20.125Z,99.38
2022-12-23T21:41:50.987Z,116.95
2022-12-23T21:44:19.172Z,115.78
2022-12-23T21:46:47.533Z,113.13
2022-12-23T21:49:17.067Z,116.53
2022-12-23T21:51:45.158Z,110.93
2022-12-23T21:54:13.995Z,105.22
2022-12-23T21:56:43.121Z,110.10
2022-12-23T21:59:14.091Z,110.63
2022-12-23T22:01:42.828Z,112.07
2022-12-23T22:04:11.226Z,111.80
2022-12-23T22:06:44.543Z,115.05
2022-12-23T22:09:14.929Z,110.63
2022-12-23T22:11:43.441Z,110.05
2022-12-23T22:14:13.310Z,102.70
2022-12-23T22:16:41.496Z,115.75
2022-12-23T22:19:10.446Z,104.25
2022-12-23T22:21:40.187Z,105.05
2022-12-23T22:24:08.693Z,93.47
2022-12-23T22:26:37.381Z,90.22
2022-12-23T22:29:06.998Z,104.88
2022-12-23T22:31:38.549Z,101.60
2022-12-23T22:34:07.603Z,100.22
2022-12-23T22:36:35.785Z,89.90
2022-12-23T22:39:07.557Z,86.28
2022-12-23T22:41:38.704Z,92.85
2022-12-23T22:44:07.352Z,83.93
2022-12-23T22:46:35.603Z,84.03
2022-12-23T22:49:03.849Z,84.90
2022-12-23T22:51:32.871Z,87.63
2022-12-23T22:54:03.780Z,87.32
2022-12-23T22:56:33.338Z,82.78
2022-12-23T22:59:01.454Z,101.25
2022-12-23T23:01:32.010Z,86.43
2022-12-23T23:04:04.518Z,89.03
2022-12-23T23:06:34.198Z,72.07
2022-12-23T23:09:02.541Z,84.85
2022-12-23T23:11:31.056Z,88.85
2022-12-23T23:14:00.543Z,82.65
2022-12-23T23:16:28.892Z,80.78
2022-12-23T23:18:58.639Z,87.07
2022-12-23T23:21:27.277Z,83.10
2022-12-23T23:23:55.901Z,81.18
2022-12-23T23:26:26.737Z,75.85
2022-12-23T23:28:55.705Z,85.65
2022-12-23T23:31:43.826Z,92.00
2022-12-23T23:34:12.800Z,78.30
2022-12-23T23:36:41.474Z,76.43
2022-12-23T23:39:10.132Z,80.05
2022-12-23T23:41:38.342Z,74.07
2022-12-23T23:44:06.637Z,70.75
2022-12-23T23:46:36.185Z,80.05
2022-12-23T23:49:04.861Z,66.45
2022-12-23T23:51:32.952Z,77.05
2022-12-23T23:54:01.158Z,73.28
2022-12-23T23:56:34.017Z,67.75
2022-12-23T23:59:05.872Z,74.75
